Albion, Oklahoma
Current Conditions -  °F | °C
As of 2:15 AM on Saturday 29 Nov 2014 (Local Time) from KRKR Reporting Station
Clear Clear  
Wind Chill: 52°   Ceiling: Unl
Heat Index: 52°   Visibility: 10mi
Dew Point: 46°   Wind: 6mph
Humidity: 81%   Direction: 190°S
Pressure: 29.9"   Gusts: NA
Location:  34.66°N, 95.1°W
Report Text: KRKR 290815Z AUTO 19005KT 10SM CLR 11/08 A2990 RMK AO2 T01110079
Loading
Personal Weather Stations






























Interactive Weather Map New forecast layout! Learn more

10-Day Weather Forecast

Advertisements
Track Severe Weather on mobile